createdAt,value
2023-03-16T00:01:53.098Z,32.11
2023-03-16T00:04:31.609Z,31.93
2023-03-16T00:07:09.455Z,31.94
2023-03-16T00:09:45.380Z,32.09
2023-03-16T00:12:22.750Z,32.03
2023-03-16T00:14:58.570Z,31.92
2023-03-16T00:17:35.014Z,32.09
2023-03-16T00:20:07.124Z,32.05
2023-03-16T00:22:42.976Z,31.86
2023-03-16T00:25:19.786Z,31.68
2023-03-16T00:27:47.616Z,31.74
2023-03-16T00:30:20.505Z,31.58
2023-03-16T00:32:54.733Z,31.73
2023-03-16T00:35:25.841Z,31.85
2023-03-16T00:37:58.514Z,31.74
2023-03-16T00:40:30.164Z,31.53
2023-03-16T00:43:07.012Z,31.53
2023-03-16T00:45:44.790Z,31.58
2023-03-16T00:48:18.478Z,31.36
2023-03-16T00:50:54.533Z,31.49
2023-03-16T00:53:30.718Z,31.52
2023-03-16T00:55:58.462Z,31.33
2023-03-16T00:58:35.874Z,31.41
2023-03-16T01:01:23.090Z,31.44
2023-03-16T01:03:56.169Z,31.25
2023-03-16T01:06:35.438Z,31.21
2023-03-16T01:09:09.774Z,31.26
2023-03-16T01:11:43.780Z,31.14
2023-03-16T01:14:14.321Z,31.04
2023-03-16T01:16:51.950Z,31.06
2023-03-16T01:19:28.450Z,31.01
2023-03-16T01:22:08.583Z,31.00
2023-03-16T01:24:45.218Z,30.94
2023-03-16T01:27:23.280Z,30.99
2023-03-16T01:30:02.358Z,30.74
2023-03-16T01:32:42.276Z,30.73
2023-03-16T01:35:22.398Z,31.16
2023-03-16T01:37:58.821Z,30.94
2023-03-16T01:40:29.710Z,30.69
2023-03-16T01:43:11.355Z,30.74
2023-03-16T01:46:07.671Z,30.92
2023-03-16T01:48:54.619Z,30.77
2023-03-16T01:51:50.701Z,30.68
2023-03-16T01:54:27.833Z,30.85
2023-03-16T01:57:10.466Z,30.61
2023-03-16T01:59:45.155Z,30.64
2023-03-16T02:02:23.888Z,30.75
2023-03-16T02:05:14.351Z,30.59
2023-03-16T02:07:47.959Z,30.56
2023-03-16T02:10:20.750Z,30.36
2023-03-16T02:12:58.114Z,30.40
2023-03-16T02:15:36.829Z,30.33
2023-03-16T02:18:12.772Z,30.19
2023-03-16T02:20:55.010Z,30.25
2023-03-16T02:23:29.652Z,30.07
2023-03-16T02:26:18.666Z,29.93
2023-03-16T02:29:05.262Z,29.76
2023-03-16T02:31:41.819Z,30.16
2023-03-16T02:34:13.229Z,30.10
2023-03-16T02:36:48.858Z,30.04
2023-03-16T02:39:27.350Z,29.91
2023-03-16T02:42:13.568Z,30.07
2023-03-16T02:44:50.953Z,29.93
2023-03-16T02:47:42.954Z,30.00
2023-03-16T02:50:19.302Z,30.10
2023-03-16T02:52:48.486Z,30.00
2023-03-16T02:55:25.080Z,30.03
2023-03-16T02:57:58.687Z,30.04
2023-03-16T03:00:34.774Z,30.17
2023-03-16T03:03:09.561Z,30.01
2023-03-16T03:05:49.393Z,30.18
2023-03-16T03:08:25.572Z,30.11
2023-03-16T03:10:56.954Z,30.08
2023-03-16T03:13:35.334Z,30.01
2023-03-16T03:16:08.857Z,30.02
2023-03-16T03:18:41.985Z,30.08
2023-03-16T03:21:13.234Z,29.72
2023-03-16T03:23:51.860Z,29.89
2023-03-16T03:26:25.883Z,29.99
2023-03-16T03:28:58.267Z,29.88
2023-03-16T03:31:33.720Z,29.56
2023-03-16T03:34:07.450Z,29.92
2023-03-16T03:36:41.523Z,29.89
2023-03-16T03:39:14.417Z,30.03
2023-03-16T03:41:47.867Z,30.01
2023-03-16T03:44:18.583Z,29.84
2023-03-16T03:46:57.643Z,30.07
2023-03-16T03:49:33.415Z,29.99
2023-03-16T03:52:09.812Z,29.95
2023-03-16T03:54:48.459Z,30.08
2023-03-16T03:57:23.290Z,29.76
2023-03-16T03:59:55.991Z,29.83
2023-03-16T04:02:29.124Z,29.54
2023-03-16T04:05:09.153Z,29.83
2023-03-16T04:07:49.491Z,29.77
2023-03-16T04:10:21.115Z,29.94
2023-03-16T04:12:59.796Z,29.83
2023-03-16T04:15:40.887Z,29.70
2023-03-16T04:18:19.512Z,29.66
2023-03-16T04:20:55.145Z,29.71
2023-03-16T04:23:30.462Z,29.86
2023-03-16T04:26:01.040Z,29.90
2023-03-16T04:28:36.344Z,29.63
2023-03-16T04:31:13.065Z,29.83
2023-03-16T04:33:50.257Z,29.77
2023-03-16T04:36:33.243Z,29.98
2023-03-16T04:39:06.844Z,29.89
2023-03-16T04:41:40.178Z,29.65
2023-03-16T04:44:26.279Z,29.62
2023-03-16T04:47:06.395Z,29.43
2023-03-16T04:49:45.666Z,29.50
2023-03-16T04:52:16.298Z,29.67
2023-03-16T04:54:54.871Z,29.73
2023-03-16T04:57:25.573Z,29.64
2023-03-16T05:00:09.876Z,29.53
2023-03-16T05:02:46.592Z,29.56
2023-03-16T05:05:25.072Z,29.42
2023-03-16T05:08:01.695Z,29.58
2023-03-16T05:10:37.040Z,29.39
2023-03-16T05:13:15.961Z,29.59
2023-03-16T05:15:48.086Z,29.14
2023-03-16T05:18:35.573Z,29.67
2023-03-16T05:21:11.543Z,29.41
2023-03-16T05:24:08.387Z,29.45
2023-03-16T05:26:41.862Z,29.65
2023-03-16T05:29:20.929Z,29.29
2023-03-16T05:31:51.537Z,29.18
2023-03-16T05:34:31.655Z,29.45
2023-03-16T05:37:05.032Z,29.36
2023-03-16T05:39:41.592Z,29.42
2023-03-16T05:42:19.820Z,29.35
2023-03-16T05:44:58.349Z,29.43
2023-03-16T05:47:45.136Z,29.39
2023-03-16T05:50:21.110Z,29.30
2023-03-16T05:53:00.114Z,29.11
2023-03-16T05:55:31.124Z,29.13
2023-03-16T05:58:08.432Z,29.33
2023-03-16T06:00:50.465Z,29.22
2023-03-16T06:03:37.546Z,29.11
2023-03-16T06:06:12.647Z,29.09
2023-03-16T06:09:01.242Z,29.17
2023-03-16T06:11:32.308Z,29.42
2023-03-16T06:14:08.388Z,29.18
2023-03-16T06:16:43.150Z,29.00
2023-03-16T06:19:23.705Z,29.32
2023-03-16T06:22:05.168Z,29.12
2023-03-16T06:24:40.584Z,29.36
2023-03-16T06:27:16.676Z,29.33
2023-03-16T06:30:07.066Z,28.91
2023-03-16T06:32:47.048Z,29.53
2023-03-16T06:35:22.830Z,29.32
2023-03-16T06:38:11.188Z,29.10
2023-03-16T06:41:06.916Z,29.35
2023-03-16T06:43:41.066Z,29.35
2023-03-16T06:46:20.131Z,29.44
2023-03-16T06:48:51.020Z,29.39
2023-03-16T06:51:25.405Z,29.37
2023-03-16T06:54:07.027Z,29.53
2023-03-16T06:56:41.943Z,29.74
2023-03-16T06:59:23.384Z,29.37
2023-03-16T07:01:59.904Z,29.46
2023-03-16T07:04:37.361Z,29.66
2023-03-16T07:07:17.429Z,29.47
2023-03-16T07:09:53.252Z,29.55
2023-03-16T07:12:23.104Z,29.64
2023-03-16T07:14:59.028Z,29.53
2023-03-16T07:17:38.915Z,29.78
2023-03-16T07:20:22.905Z,29.79
2023-03-16T07:23:08.155Z,29.95
2023-03-16T07:25:48.238Z,29.95
2023-03-16T07:28:26.871Z,30.21
2023-03-16T07:31:06.251Z,30.20
2023-03-16T07:33:44.574Z,30.26
2023-03-16T07:36:28.144Z,30.12
2023-03-16T07:39:17.971Z,30.19
2023-03-16T07:41:57.066Z,30.34
2023-03-16T07:44:58.026Z,30.18
2023-03-16T07:47:34.322Z,29.89
2023-03-16T07:50:16.734Z,30.13
2023-03-16T07:52:47.574Z,30.27
2023-03-16T07:55:23.839Z,30.23
2023-03-16T07:57:55.200Z,30.46
2023-03-16T08:00:39.962Z,30.28
2023-03-16T08:03:14.137Z,30.16
2023-03-16T08:05:48.206Z,30.39
2023-03-16T08:08:29.235Z,30.26
2023-03-16T08:11:03.700Z,30.33
2023-03-16T08:13:57.114Z,30.23
2023-03-16T08:16:33.013Z,30.49
2023-03-16T08:19:03.937Z,30.58
2023-03-16T08:21:59.781Z,30.50
2023-03-16T08:24:45.359Z,30.45
2023-03-16T08:27:23.380Z,30.07
2023-03-16T08:30:07.182Z,30.40
2023-03-16T08:32:43.053Z,29.96
2023-03-16T08:35:20.228Z,30.19
2023-03-16T08:37:59.986Z,30.19
2023-03-16T08:40:35.938Z,30.22
2023-03-16T08:43:10.137Z,30.66
2023-03-16T08:45:49.944Z,30.30
2023-03-16T08:48:29.898Z,30.41
2023-03-16T08:51:11.851Z,30.62
2023-03-16T08:53:48.062Z,30.62
2023-03-16T08:56:32.603Z,30.36
2023-03-16T08:59:27.359Z,30.73
2023-03-16T09:02:14.889Z,30.53
2023-03-16T09:04:52.784Z,30.49
2023-03-16T09:07:29.481Z,30.39
2023-03-16T09:10:10.193Z,30.41
2023-03-16T09:12:50.818Z,30.44
2023-03-16T09:15:37.693Z,30.07
2023-03-16T09:18:15.283Z,29.69
2023-03-16T09:20:51.752Z,29.51
2023-03-16T09:23:21.069Z,29.44
2023-03-16T09:25:57.835Z,29.18
2023-03-16T09:28:29.587Z,29.37
2023-03-16T09:30:59.037Z,29.05
2023-03-16T09:33:34.019Z,28.93
2023-03-16T09:36:06.325Z,28.68
2023-03-16T09:38:37.465Z,28.59
2023-03-16T09:41:31.771Z,28.54
2023-03-16T09:44:13.735Z,28.89
2023-03-16T09:46:48.745Z,28.69
2023-03-16T09:49:26.205Z,28.09
2023-03-16T09:52:02.209Z,28.54
2023-03-16T09:54:50.961Z,28.53
2023-03-16T09:57:31.115Z,28.27
2023-03-16T10:00:19.906Z,27.87
2023-03-16T10:02:51.231Z,27.71
2023-03-16T10:05:32.118Z,27.51
2023-03-16T10:08:30.988Z,28.03
2023-03-16T10:11:24.559Z,28.13
2023-03-16T10:14:17.739Z,28.14
2023-03-16T10:16:57.037Z,27.88
2023-03-16T10:19:43.563Z,27.86
2023-03-16T10:22:18.757Z,27.48
2023-03-16T10:25:07.973Z,27.97
2023-03-16T10:27:43.588Z,27.42
2023-03-16T10:30:34.433Z,27.31
2023-03-16T10:33:25.081Z,27.20
2023-03-16T10:36:16.804Z,27.19
2023-03-16T10:39:01.605Z,27.65
2023-03-16T10:41:43.390Z,27.23
2023-03-16T10:44:30.234Z,27.57
2023-03-16T10:47:17.035Z,27.30
2023-03-16T10:49:55.214Z,27.74
2023-03-16T10:52:33.317Z,27.11
2023-03-16T10:55:16.090Z,27.37
2023-03-16T10:58:08.909Z,27.35
2023-03-16T11:00:50.234Z,27.29
2023-03-16T11:03:45.195Z,27.34
2023-03-16T11:06:27.974Z,27.44
2023-03-16T11:09:14.003Z,27.29
2023-03-16T11:11:54.116Z,27.37
2023-03-16T11:14:36.361Z,26.94
2023-03-16T11:17:44.649Z,27.25
2023-03-16T11:20:44.010Z,27.36
2023-03-16T11:23:27.809Z,27.56
2023-03-16T11:26:17.764Z,27.12
2023-03-16T11:29:09.879Z,26.95
2023-03-16T11:31:53.656Z,27.08
2023-03-16T11:34:35.358Z,27.16
2023-03-16T11:37:45.562Z,27.21
2023-03-16T11:40:36.552Z,27.28
2023-03-16T11:43:15.263Z,26.77
2023-03-16T11:46:16.710Z,26.69
2023-03-16T11:49:00.025Z,27.23
2023-03-16T11:51:54.309Z,26.75
2023-03-16T11:54:25.041Z,26.61
2023-03-16T11:57:15.495Z,27.19
2023-03-16T12:00:05.164Z,27.15
2023-03-16T12:02:55.499Z,27.38
2023-03-16T12:05:58.348Z,27.58
2023-03-16T12:09:04.514Z,27.39
2023-03-16T12:11:51.377Z,27.56
2023-03-16T12:14:34.127Z,27.50
2023-03-16T12:17:18.474Z,27.15
2023-03-16T12:20:24.866Z,27.22
2023-03-16T12:23:24.455Z,27.66
2023-03-16T12:25:56.002Z,27.24
2023-03-16T12:28:31.913Z,26.94
2023-03-16T12:31:12.210Z,27.33
2023-03-16T12:34:02.623Z,27.15
2023-03-16T12:36:58.217Z,26.79
2023-03-16T12:39:45.716Z,26.51
2023-03-16T12:42:47.546Z,26.53
2023-03-16T12:45:32.729Z,26.90
2023-03-16T12:48:31.160Z,26.28
2023-03-16T12:51:08.067Z,26.23
2023-03-16T12:53:49.903Z,25.89
2023-03-16T12:56:39.182Z,25.80
2023-03-16T12:59:23.353Z,25.51
2023-03-16T13:01:58.266Z,25.61
2023-03-16T13:04:45.635Z,26.26
2023-03-16T13:07:34.356Z,26.23
2023-03-16T13:10:12.441Z,26.11
2023-03-16T13:12:41.895Z,25.63
2023-03-16T13:15:23.206Z,26.07
2023-03-16T13:18:21.274Z,25.33
2023-03-16T13:21:18.566Z,26.09
2023-03-16T13:24:00.219Z,25.73
2023-03-16T13:26:41.847Z,25.77
2023-03-16T13:29:28.554Z,25.95
2023-03-16T13:32:01.862Z,26.06
2023-03-16T13:34:56.686Z,25.62
2023-03-16T13:37:28.552Z,25.91
2023-03-16T13:40:04.820Z,26.21
2023-03-16T13:42:33.858Z,26.06
2023-03-16T13:45:14.433Z,26.29
2023-03-16T13:47:44.396Z,26.18
2023-03-16T13:50:18.250Z,26.30
2023-03-16T13:52:58.279Z,25.84
2023-03-16T13:55:37.815Z,26.38
2023-03-16T13:58:11.411Z,26.29
2023-03-16T14:00:47.898Z,26.03
2023-03-16T14:03:22.417Z,26.48
2023-03-16T14:06:03.018Z,26.26
2023-03-16T14:08:34.538Z,26.72
2023-03-16T14:11:17.982Z,26.62
2023-03-16T14:14:06.489Z,26.73
2023-03-16T14:16:46.857Z,26.60
2023-03-16T14:19:29.955Z,26.94
2023-03-16T14:22:08.351Z,26.83
2023-03-16T14:24:41.310Z,26.56
2023-03-16T14:27:19.932Z,26.52
2023-03-16T14:29:57.172Z,26.68
2023-03-16T14:32:35.183Z,26.89
2023-03-16T14:35:16.955Z,27.30
2023-03-16T14:37:49.433Z,27.21
2023-03-16T14:40:33.572Z,27.05
2023-03-16T14:43:09.827Z,26.83
2023-03-16T14:45:48.147Z,26.60
2023-03-16T14:48:24.225Z,27.27
2023-03-16T14:51:01.872Z,27.06
2023-03-16T14:53:43.576Z,26.82
2023-03-16T14:56:22.235Z,26.85
2023-03-16T14:58:58.652Z,27.08
2023-03-16T15:01:38.466Z,26.65
2023-03-16T15:04:16.551Z,26.44
2023-03-16T15:06:58.834Z,27.00
2023-03-16T15:09:52.180Z,26.98
2023-03-16T15:12:43.802Z,26.65
2023-03-16T15:15:20.010Z,27.25
2023-03-16T15:17:55.871Z,27.22
2023-03-16T15:20:42.592Z,27.48
2023-03-16T15:23:17.729Z,27.15
2023-03-16T15:25:47.720Z,27.09
2023-03-16T15:28:23.837Z,27.39
2023-03-16T15:31:07.138Z,27.22
2023-03-16T15:33:45.415Z,27.16
2023-03-16T15:36:27.845Z,27.03
2023-03-16T15:39:10.136Z,27.10
2023-03-16T15:41:49.547Z,27.15
2023-03-16T15:44:23.210Z,27.56
2023-03-16T15:47:06.517Z,27.51
2023-03-16T15:49:47.118Z,27.69
2023-03-16T15:52:30.599Z,27.51
2023-03-16T15:55:15.403Z,27.55
2023-03-16T15:57:59.169Z,27.22
2023-03-16T16:00:33.530Z,27.74
2023-03-16T16:03:18.704Z,27.65
2023-03-16T16:06:01.641Z,28.14
2023-03-16T16:08:43.897Z,27.87
2023-03-16T16:11:26.003Z,28.14
2023-03-16T16:14:03.207Z,28.40
2023-03-16T16:16:45.515Z,28.43
2023-03-16T16:19:36.358Z,28.63
2023-03-16T16:22:16.584Z,28.09
2023-03-16T16:24:54.298Z,27.91
2023-03-16T16:27:28.579Z,27.99
2023-03-16T16:30:09.132Z,28.34
2023-03-16T16:32:46.602Z,28.42
2023-03-16T16:35:27.747Z,28.67
2023-03-16T16:38:06.020Z,28.08
2023-03-16T16:40:46.252Z,28.36
2023-03-16T16:43:34.977Z,28.69
2023-03-16T16:46:33.255Z,28.74
2023-03-16T16:49:31.248Z,28.36
2023-03-16T16:52:13.176Z,28.42
2023-03-16T16:54:52.291Z,28.36
2023-03-16T16:57:23.337Z,28.48
2023-03-16T17:00:05.538Z,28.24
2023-03-16T17:02:57.891Z,28.72
2023-03-16T17:05:35.644Z,28.41
2023-03-16T17:08:14.496Z,28.57
2023-03-16T17:10:50.521Z,28.87
2023-03-16T17:13:32.376Z,28.46
2023-03-16T17:16:07.438Z,28.25
2023-03-16T17:18:42.253Z,28.36
2023-03-16T17:21:20.095Z,28.60
2023-03-16T17:23:51.960Z,28.35
2023-03-16T17:26:44.631Z,28.58
2023-03-16T17:29:29.304Z,28.58
2023-03-16T17:32:02.513Z,28.41
2023-03-16T17:34:37.713Z,28.69
2023-03-16T17:37:18.786Z,28.37
2023-03-16T17:39:57.807Z,28.39
2023-03-16T17:42:34.506Z,28.47
2023-03-16T17:45:15.560Z,28.30
2023-03-16T17:47:53.105Z,28.89
2023-03-16T17:50:30.051Z,28.52
2023-03-16T17:53:03.708Z,28.78
2023-03-16T17:55:43.151Z,28.81
2023-03-16T17:58:21.853Z,28.56
2023-03-16T18:01:01.465Z,29.06
2023-03-16T18:03:34.954Z,29.13
2023-03-16T18:06:06.360Z,29.02
2023-03-16T18:08:43.460Z,29.39
2023-03-16T18:11:20.823Z,29.13
2023-03-16T18:13:58.339Z,29.11
2023-03-16T18:16:39.329Z,29.24
2023-03-16T18:19:25.448Z,29.22
2023-03-16T18:21:58.973Z,29.30
2023-03-16T18:24:30.656Z,29.39
2023-03-16T18:27:12.092Z,29.77
2023-03-16T18:29:45.808Z,29.24
2023-03-16T18:32:33.240Z,29.50
2023-03-16T18:35:09.744Z,29.56
2023-03-16T18:37:43.338Z,29.60
2023-03-16T18:40:21.666Z,29.49
2023-03-16T18:42:55.073Z,29.33
2023-03-16T18:45:28.302Z,29.47
2023-03-16T18:48:04.884Z,29.72
2023-03-16T18:50:38.022Z,29.69
2023-03-16T18:53:18.208Z,29.82
2023-03-16T18:56:03.802Z,29.40
2023-03-16T18:58:47.795Z,29.59
2023-03-16T19:01:37.619Z,29.78
2023-03-16T19:04:36.128Z,29.36
2023-03-16T19:07:17.300Z,29.62
2023-03-16T19:09:58.136Z,29.72
2023-03-16T19:12:38.443Z,29.67
2023-03-16T19:15:28.593Z,29.68
2023-03-16T19:18:03.839Z,29.75
2023-03-16T19:20:44.524Z,29.54
2023-03-16T19:23:39.143Z,29.61
2023-03-16T19:26:15.213Z,29.63
2023-03-16T19:28:54.209Z,29.78
2023-03-16T19:31:29.678Z,29.79
2023-03-16T19:34:07.987Z,29.92
2023-03-16T19:36:47.406Z,29.85
2023-03-16T19:39:21.335Z,29.82
2023-03-16T19:42:03.845Z,29.89
2023-03-16T19:44:42.230Z,29.51
2023-03-16T19:47:28.861Z,29.57
2023-03-16T19:50:14.665Z,29.74
2023-03-16T19:52:52.799Z,29.78
2023-03-16T19:55:38.041Z,29.96
2023-03-16T19:58:20.936Z,29.83
2023-03-16T20:01:01.310Z,29.38
2023-03-16T20:03:37.375Z,29.35
2023-03-16T20:06:18.137Z,29.47
2023-03-16T20:08:57.040Z,29.79
2023-03-16T20:11:30.932Z,29.42
2023-03-16T20:14:08.818Z,29.56
2023-03-16T20:16:48.298Z,29.45
2023-03-16T20:19:16.767Z,29.37
2023-03-16T20:21:52.711Z,29.40
2023-03-16T20:24:31.721Z,29.51
2023-03-16T20:27:05.524Z,29.37
2023-03-16T20:29:38.608Z,29.37
2023-03-16T20:32:22.396Z,29.39
2023-03-16T20:34:58.224Z,29.25
2023-03-16T20:37:41.957Z,29.25
2023-03-16T20:40:16.892Z,29.10
2023-03-16T20:42:52.764Z,29.18
2023-03-16T20:45:30.674Z,29.13
2023-03-16T20:48:10.256Z,29.18
2023-03-16T20:50:46.197Z,29.05
2023-03-16T20:53:22.745Z,29.02
2023-03-16T20:55:54.804Z,29.19
2023-03-16T20:58:31.018Z,29.08
2023-03-16T21:01:07.074Z,29.26
2023-03-16T21:03:54.319Z,29.15
2023-03-16T21:06:35.824Z,29.22
2023-03-16T21:09:11.964Z,29.23
2023-03-16T21:11:48.411Z,29.40
2023-03-16T21:14:31.433Z,29.29
2023-03-16T21:17:10.852Z,29.33
2023-03-16T21:19:41.774Z,29.38
2023-03-16T21:22:26.168Z,29.40
2023-03-16T21:25:02.549Z,29.13
2023-03-16T21:27:39.899Z,29.44
2023-03-16T21:30:26.305Z,29.34
2023-03-16T21:33:05.994Z,29.45
2023-03-16T21:35:40.851Z,29.27
2023-03-16T21:38:17.810Z,29.28
2023-03-16T21:40:51.890Z,29.49
2023-03-16T21:43:25.892Z,29.47
2023-03-16T21:45:59.668Z,29.32
2023-03-16T21:48:42.936Z,29.20
2023-03-16T21:51:30.685Z,29.30
2023-03-16T21:54:09.154Z,29.38
2023-03-16T21:56:45.853Z,29.20
2023-03-16T21:59:24.904Z,29.25
2023-03-16T22:02:03.453Z,29.39
2023-03-16T22:04:41.893Z,29.25
2023-03-16T22:07:22.429Z,29.37
2023-03-16T22:10:03.045Z,29.05
2023-03-16T22:12:43.176Z,29.36
2023-03-16T22:15:20.085Z,29.20
2023-03-16T22:18:02.692Z,29.12
2023-03-16T22:20:38.743Z,29.19
2023-03-16T22:23:35.318Z,29.05
2023-03-16T22:26:15.390Z,29.22
2023-03-16T22:28:53.888Z,29.17
2023-03-16T22:31:35.089Z,29.13
2023-03-16T22:34:27.980Z,29.07
2023-03-16T22:37:02.873Z,29.33
2023-03-16T22:39:39.572Z,29.02
2023-03-16T22:42:35.790Z,29.03
2023-03-16T22:45:21.756Z,29.00
2023-03-16T22:47:54.079Z,28.96
2023-03-16T22:50:32.431Z,29.02
2023-03-16T22:53:09.059Z,29.11
2023-03-16T22:55:48.921Z,29.06
2023-03-16T22:58:40.657Z,29.07
2023-03-16T23:01:24.169Z,28.98
2023-03-16T23:04:01.950Z,28.60
2023-03-16T23:06:33.808Z,28.94
2023-03-16T23:09:09.806Z,28.91
2023-03-16T23:11:43.467Z,28.69
2023-03-16T23:14:21.281Z,28.50
2023-03-16T23:17:03.818Z,28.78
2023-03-16T23:19:39.618Z,28.80
2023-03-16T23:22:17.013Z,28.77
2023-03-16T23:24:47.596Z,28.75
2023-03-16T23:27:27.550Z,28.91
2023-03-16T23:30:01.969Z,29.02
2023-03-16T23:32:38.953Z,28.95
2023-03-16T23:35:25.127Z,28.98
2023-03-16T23:37:57.682Z,28.95
2023-03-16T23:40:35.038Z,28.98
2023-03-16T23:43:10.544Z,28.89
2023-03-16T23:45:52.831Z,28.85
2023-03-16T23:48:24.086Z,29.05
2023-03-16T23:50:58.432Z,28.98
2023-03-16T23:53:40.635Z,28.96
2023-03-16T23:56:14.979Z,28.99
2023-03-16T23:58:59.512Z,28.74
